createdAt,value
2022-12-25T00:01:12.824Z,6.75
2022-12-25T00:03:39.753Z,7.50
2022-12-25T00:06:07.115Z,7.25
2022-12-25T00:08:34.234Z,7.72
2022-12-25T00:11:06.262Z,7.43
2022-12-25T00:13:33.651Z,7.35
2022-12-25T00:16:00.556Z,6.22
2022-12-25T00:18:27.426Z,6.32
2022-12-25T00:20:58.410Z,6.72
2022-12-25T00:23:25.595Z,5.80
2022-12-25T00:25:53.463Z,6.20
2022-12-25T00:28:21.057Z,5.57
2022-12-25T00:30:47.896Z,6.55
2022-12-25T00:33:15.079Z,5.15
2022-12-25T00:35:41.949Z,5.22
2022-12-25T00:38:08.812Z,5.60
2022-12-25T00:40:42.956Z,5.13
2022-12-25T00:43:09.956Z,5.03
2022-12-25T00:45:36.711Z,5.35
2022-12-25T00:48:04.027Z,6.45
2022-12-25T00:50:30.752Z,5.75
2022-12-25T00:52:57.555Z,5.78
2022-12-25T00:55:24.255Z,5.25
2022-12-25T00:57:50.983Z,5.35
2022-12-25T01:00:17.875Z,5.93
2022-12-25T01:02:44.891Z,5.25
2022-12-25T01:05:11.858Z,6.60
2022-12-25T01:07:38.585Z,5.45
2022-12-25T01:10:24.530Z,5.90
2022-12-25T01:12:51.992Z,6.10
2022-12-25T01:15:19.382Z,5.55
2022-12-25T01:17:46.671Z,5.28
2022-12-25T01:20:15.688Z,6.13
2022-12-25T01:22:42.843Z,5.63
2022-12-25T01:25:10.764Z,5.38
2022-12-25T01:27:38.153Z,5.45
2022-12-25T01:30:06.186Z,4.63
2022-12-25T01:32:33.215Z,5.80
2022-12-25T01:34:59.950Z,5.50
2022-12-25T01:37:26.829Z,6.07
2022-12-25T01:39:53.957Z,5.90
2022-12-25T01:42:23.678Z,5.80
2022-12-25T01:44:50.412Z,6.00
2022-12-25T01:47:18.461Z,5.80
2022-12-25T01:49:49.519Z,6.28
2022-12-25T01:52:24.201Z,6.70
2022-12-25T01:55:04.055Z,6.38
2022-12-25T01:57:34.265Z,6.68
2022-12-25T02:00:01.883Z,7.18
2022-12-25T02:02:29.603Z,6.07
2022-12-25T02:05:30.980Z,6.28
2022-12-25T02:08:19.514Z,6.22
2022-12-25T02:10:46.861Z,5.22
2022-12-25T02:13:16.885Z,7.20
2022-12-25T02:16:21.022Z,6.03
2022-12-25T02:18:58.494Z,6.60
2022-12-25T02:22:01.980Z,6.68
2022-12-25T02:24:31.535Z,7.50
2022-12-25T02:27:11.120Z,6.97
2022-12-25T02:29:56.116Z,6.68
2022-12-25T02:32:31.147Z,6.47
2022-12-25T02:35:16.046Z,6.47
2022-12-25T02:38:05.556Z,5.90
2022-12-25T02:40:42.676Z,5.47
2022-12-25T02:43:35.938Z,6.28
2022-12-25T02:46:28.500Z,6.25
2022-12-25T02:49:18.348Z,6.07
2022-12-25T02:52:07.842Z,6.13
2022-12-25T02:54:56.868Z,6.32
2022-12-25T02:57:48.097Z,6.40
2022-12-25T03:00:33.871Z,6.50
2022-12-25T03:03:23.034Z,6.70
2022-12-25T03:06:27.399Z,6.32
2022-12-25T03:09:17.885Z,6.32
2022-12-25T03:11:49.998Z,6.10
2022-12-25T03:14:35.311Z,6.65
2022-12-25T03:17:02.284Z,6.55
2022-12-25T03:20:06.860Z,6.40
2022-12-25T03:22:52.966Z,5.70
2022-12-25T03:25:38.444Z,6.28
2022-12-25T03:28:06.074Z,6.93
2022-12-25T03:30:56.132Z,6.18
2022-12-25T03:34:04.837Z,5.82
2022-12-25T03:36:38.871Z,5.70
2022-12-25T03:39:19.409Z,6.13
2022-12-25T03:42:19.376Z,6.20
2022-12-25T03:45:11.017Z,5.90
2022-12-25T03:48:05.985Z,5.78
2022-12-25T03:51:18.747Z,5.57
2022-12-25T03:54:16.044Z,5.80
2022-12-25T03:57:02.119Z,6.03
2022-12-25T03:59:47.478Z,5.68
2022-12-25T04:02:32.697Z,5.70
2022-12-25T04:05:18.241Z,6.25
2022-12-25T04:08:03.720Z,6.10
2022-12-25T04:10:49.076Z,6.18
2022-12-25T04:13:34.860Z,5.40
2022-12-25T04:16:20.012Z,5.20
2022-12-25T04:19:05.473Z,6.22
2022-12-25T04:21:50.847Z,6.07
2022-12-25T04:24:36.071Z,6.20
2022-12-25T04:27:21.739Z,6.40
2022-12-25T04:30:07.035Z,6.70
2022-12-25T04:32:52.412Z,6.38
2022-12-25T04:35:37.594Z,5.95
2022-12-25T04:38:04.362Z,5.97
2022-12-25T04:40:30.993Z,6.55
2022-12-25T04:42:57.692Z,6.03
2022-12-25T04:45:24.303Z,6.40
2022-12-25T04:47:51.046Z,6.40
2022-12-25T04:50:17.733Z,6.38
2022-12-25T04:52:44.532Z,7.25
2022-12-25T04:55:11.767Z,7.22
2022-12-25T04:57:38.741Z,7.15
2022-12-25T05:00:06.813Z,8.00
2022-12-25T05:02:34.028Z,9.77
2022-12-25T05:05:00.879Z,6.28
2022-12-25T05:07:27.574Z,5.88
2022-12-25T05:09:54.244Z,6.35
2022-12-25T05:12:21.127Z,6.80
2022-12-25T05:14:47.781Z,5.45
2022-12-25T05:17:14.519Z,5.55
2022-12-25T05:19:41.166Z,6.63
2022-12-25T05:22:07.878Z,5.80
2022-12-25T05:24:34.570Z,6.35
2022-12-25T05:27:01.308Z,5.45
2022-12-25T05:29:28.092Z,6.50
2022-12-25T05:31:54.868Z,6.75
2022-12-25T05:34:21.663Z,7.72
2022-12-25T05:36:48.332Z,6.70
2022-12-25T05:39:15.114Z,7.18
2022-12-25T05:41:41.785Z,7.00
2022-12-25T05:44:08.562Z,6.63
2022-12-25T05:46:35.276Z,6.75
2022-12-25T05:49:01.999Z,6.10
2022-12-25T05:51:28.698Z,5.75
2022-12-25T05:53:55.418Z,6.47
2022-12-25T05:56:22.149Z,6.50
2022-12-25T05:58:48.891Z,6.63
2022-12-25T06:01:21.742Z,6.28
2022-12-25T06:03:48.511Z,5.95
2022-12-25T06:06:15.824Z,5.82
2022-12-25T06:08:42.654Z,5.68
2022-12-25T06:11:10.464Z,5.85
2022-12-25T06:13:37.428Z,7.70
2022-12-25T06:16:09.700Z,6.50
2022-12-25T06:18:41.678Z,6.03
2022-12-25T06:21:10.062Z,7.47
2022-12-25T06:23:38.173Z,6.18
2022-12-25T06:26:10.864Z,6.03
2022-12-25T06:28:37.814Z,6.88
2022-12-25T06:31:12.439Z,7.47
2022-12-25T06:33:39.564Z,8.23
2022-12-25T06:36:11.510Z,6.90
2022-12-25T06:38:38.592Z,6.40
2022-12-25T06:41:13.799Z,7.63
2022-12-25T06:43:40.496Z,6.50
2022-12-25T06:46:10.544Z,6.97
2022-12-25T06:48:38.879Z,7.20
2022-12-25T06:51:07.053Z,7.30
2022-12-25T06:53:40.635Z,7.90
2022-12-25T06:56:10.740Z,8.25
2022-12-25T06:58:37.550Z,6.85
2022-12-25T07:01:15.177Z,7.50
2022-12-25T07:03:44.068Z,8.23
2022-12-25T07:06:11.166Z,7.40
2022-12-25T07:08:38.013Z,6.78
2022-12-25T07:11:05.091Z,8.38
2022-12-25T07:13:31.958Z,6.95
2022-12-25T07:16:03.980Z,7.43
2022-12-25T07:20:59.693Z,5.95
2022-12-25T07:23:26.911Z,6.15
2022-12-25T07:25:58.154Z,7.53
2022-12-25T07:28:26.027Z,5.30
2022-12-25T07:30:53.451Z,6.18
2022-12-25T07:33:20.549Z,7.20
2022-12-25T07:35:47.271Z,6.53
2022-12-25T07:38:14.217Z,7.65
2022-12-25T07:40:40.979Z,6.95
2022-12-25T07:43:07.784Z,7.63
2022-12-25T07:45:34.569Z,7.20
2022-12-25T07:48:05.293Z,7.00
2022-12-25T07:50:33.337Z,5.70
2022-12-25T07:53:00.021Z,6.22
2022-12-25T07:55:26.855Z,8.02
2022-12-25T07:57:53.578Z,6.28
2022-12-25T08:00:20.716Z,7.18
2022-12-25T08:02:50.794Z,7.70
2022-12-25T08:05:17.761Z,6.78
2022-12-25T08:07:44.609Z,6.65
2022-12-25T08:10:11.570Z,6.50
2022-12-25T08:12:38.325Z,7.18
2022-12-25T08:15:05.485Z,8.60
2022-12-25T08:17:35.247Z,6.80
2022-12-25T08:20:02.020Z,7.47
2022-12-25T08:22:28.803Z,7.95
2022-12-25T08:24:55.615Z,7.97
2022-12-25T08:27:22.323Z,6.50
2022-12-25T08:29:49.277Z,7.45
2022-12-25T08:32:15.982Z,7.30
2022-12-25T08:34:42.885Z,8.02
2022-12-25T08:37:09.660Z,6.72
2022-12-25T08:39:36.531Z,7.15
2022-12-25T08:42:03.601Z,7.63
2022-12-25T08:44:30.410Z,8.15
2022-12-25T08:46:57.273Z,7.63
2022-12-25T08:49:27.419Z,8.02
2022-12-25T08:51:54.348Z,7.53
2022-12-25T08:54:21.068Z,8.23
2022-12-25T08:56:48.008Z,6.88
2022-12-25T08:59:14.875Z,8.02
2022-12-25T09:01:42.055Z,9.00
2022-12-25T09:04:09.270Z,8.18
2022-12-25T09:06:36.095Z,8.82
2022-12-25T09:09:03.005Z,8.30
2022-12-25T09:11:30.163Z,7.70
2022-12-25T09:13:57.247Z,9.77
2022-12-25T09:16:24.034Z,8.50
2022-12-25T09:18:51.098Z,8.13
2022-12-25T09:21:19.120Z,9.98
2022-12-25T09:23:45.956Z,8.95
2022-12-25T09:26:15.483Z,8.23
2022-12-25T09:28:50.695Z,9.43
2022-12-25T09:31:18.804Z,9.52
2022-12-25T09:33:45.707Z,9.00
2022-12-25T09:36:12.548Z,7.90
2022-12-25T09:38:39.777Z,8.40
2022-12-25T09:41:48.781Z,9.57
2022-12-25T09:44:26.360Z,10.20
2022-12-25T09:46:58.495Z,9.02
2022-12-25T09:52:18.353Z,9.32
2022-12-25T09:54:54.541Z,9.60
2022-12-25T09:57:21.500Z,10.05
2022-12-25T09:59:49.683Z,10.23
2022-12-25T10:02:38.443Z,10.23
2022-12-25T10:05:17.455Z,11.43
2022-12-25T10:07:58.678Z,11.90
2022-12-25T10:11:04.063Z,10.70
2022-12-25T10:13:53.276Z,10.95
2022-12-25T10:16:45.068Z,12.00
2022-12-25T10:19:41.645Z,11.00
2022-12-25T10:22:14.910Z,10.88
2022-12-25T10:24:49.637Z,10.20
2022-12-25T10:27:30.112Z,10.68
2022-12-25T10:29:57.235Z,11.25
2022-12-25T10:32:24.008Z,9.68
2022-12-25T10:34:50.973Z,10.73
2022-12-25T10:37:18.059Z,10.70
2022-12-25T10:39:51.233Z,10.75
2022-12-25T10:42:23.962Z,10.60
2022-12-25T10:45:04.885Z,10.98
2022-12-25T10:47:37.218Z,8.82
2022-12-25T10:50:24.807Z,9.93
2022-12-25T10:53:14.050Z,9.20
2022-12-25T10:55:41.201Z,9.70
2022-12-25T10:58:08.479Z,9.80
2022-12-25T11:00:35.588Z,8.82
2022-12-25T11:03:02.532Z,9.82
2022-12-25T11:05:33.270Z,8.45
2022-12-25T11:08:02.224Z,9.25
2022-12-25T11:10:36.687Z,9.50
2022-12-25T11:13:09.157Z,9.38
2022-12-25T11:15:45.177Z,10.25
2022-12-25T11:18:22.036Z,9.85
2022-12-25T11:20:58.123Z,9.85
2022-12-25T11:23:27.214Z,9.70
2022-12-25T11:26:06.169Z,9.02
2022-12-25T11:28:37.272Z,8.88
2022-12-25T11:31:13.300Z,9.43
2022-12-25T11:33:51.693Z,9.48
2022-12-25T11:36:38.752Z,10.02
2022-12-25T11:39:21.165Z,8.20
2022-12-25T11:41:49.762Z,8.80
2022-12-25T11:45:01.129Z,7.97
2022-12-25T11:47:51.840Z,8.23
2022-12-25T11:50:46.429Z,8.35
2022-12-25T11:53:36.059Z,7.68
2022-12-25T11:56:08.396Z,8.35
2022-12-25T11:58:59.057Z,8.50
2022-12-25T12:01:42.105Z,8.45
2022-12-25T12:04:25.805Z,8.90
2022-12-25T12:06:58.865Z,8.35
2022-12-25T12:09:37.807Z,8.25
2022-12-25T12:12:16.742Z,7.97
2022-12-25T12:14:53.093Z,8.90
2022-12-25T12:17:20.275Z,8.43
2022-12-25T12:19:47.106Z,8.23
2022-12-25T12:22:27.539Z,7.93
2022-12-25T12:25:07.043Z,7.95
2022-12-25T12:27:39.723Z,8.48
2022-12-25T12:30:23.222Z,8.38
2022-12-25T12:32:53.795Z,7.75
2022-12-25T12:35:30.356Z,7.57
2022-12-25T12:38:09.340Z,7.72
2022-12-25T12:40:54.556Z,8.10
2022-12-25T12:43:53.576Z,7.43
2022-12-25T12:46:30.678Z,7.28
2022-12-25T12:49:25.644Z,8.38
2022-12-25T12:52:06.862Z,8.30
2022-12-25T12:54:49.288Z,7.40
2022-12-25T12:57:42.847Z,7.45
2022-12-25T13:00:18.518Z,7.30
2022-12-25T13:03:26.752Z,8.23
2022-12-25T13:05:56.475Z,8.05
2022-12-25T13:08:42.734Z,7.55
2022-12-25T13:11:21.195Z,7.97
2022-12-25T13:13:50.758Z,7.95
2022-12-25T13:16:40.900Z,8.55
2022-12-25T13:19:27.562Z,7.88
2022-12-25T13:24:55.456Z,7.88
2022-12-25T13:27:33.444Z,8.05
2022-12-25T13:30:00.691Z,7.80
2022-12-25T13:32:31.881Z,8.05
2022-12-25T13:34:59.985Z,8.35
2022-12-25T13:37:28.850Z,7.97
2022-12-25T13:40:04.092Z,7.18
2022-12-25T13:42:36.164Z,7.43
2022-12-25T13:45:06.526Z,6.82
2022-12-25T13:47:38.831Z,7.15
2022-12-25T13:50:24.519Z,6.75
2022-12-25T13:53:02.973Z,7.25
2022-12-25T13:55:30.545Z,6.78
2022-12-25T13:58:03.618Z,6.43
2022-12-25T14:00:51.311Z,7.25
2022-12-25T14:03:26.583Z,6.65
2022-12-25T14:06:02.180Z,6.78
2022-12-25T14:08:32.091Z,6.97
2022-12-25T14:11:03.879Z,6.32
2022-12-25T14:13:32.832Z,6.30
2022-12-25T14:16:01.709Z,6.90
2022-12-25T14:18:29.937Z,6.28
2022-12-25T14:21:15.605Z,6.50
2022-12-25T14:23:50.147Z,6.35
2022-12-25T14:29:23.685Z,6.63
2022-12-25T14:31:55.965Z,6.10
2022-12-25T14:34:24.755Z,6.68
2022-12-25T14:36:53.033Z,6.30
2022-12-25T14:39:34.706Z,7.32
2022-12-25T14:42:13.582Z,6.18
2022-12-25T14:44:41.059Z,6.82
2022-12-25T14:47:10.835Z,6.53
2022-12-25T14:49:38.555Z,7.03
2022-12-25T14:52:22.991Z,6.80
2022-12-25T14:55:08.768Z,6.78
2022-12-25T14:57:40.495Z,6.75
2022-12-25T15:00:24.655Z,6.32
2022-12-25T15:02:53.582Z,6.80
2022-12-25T15:05:38.801Z,6.47
2022-12-25T15:08:08.362Z,7.60
2022-12-25T15:13:28.053Z,6.47
2022-12-25T15:16:02.226Z,6.35
2022-12-25T15:18:34.480Z,6.68
2022-12-25T15:21:01.293Z,6.35
2022-12-25T15:23:28.530Z,6.53
2022-12-25T15:25:57.481Z,7.22
2022-12-25T15:28:24.315Z,6.82
2022-12-25T15:31:19.727Z,7.35
2022-12-25T15:33:46.749Z,7.45
2022-12-25T15:36:13.476Z,7.32
2022-12-25T15:38:40.206Z,8.25
2022-12-25T15:41:47.851Z,7.53
2022-12-25T15:44:15.655Z,7.35
2022-12-25T15:46:42.721Z,7.10
2022-12-25T15:49:10.895Z,7.43
2022-12-25T15:51:38.076Z,6.57
2022-12-25T15:54:04.889Z,6.97
2022-12-25T15:56:42.201Z,7.53
2022-12-25T15:59:13.219Z,7.78
2022-12-25T16:01:43.243Z,7.65
2022-12-25T16:04:10.137Z,7.80
2022-12-25T16:06:36.867Z,8.50
2022-12-25T16:09:03.711Z,8.35
2022-12-25T16:11:30.589Z,8.60
2022-12-25T16:13:57.571Z,8.52
2022-12-25T16:16:24.411Z,8.63
2022-12-25T16:18:51.171Z,9.18
2022-12-25T16:21:21.051Z,9.80
2022-12-25T16:23:48.120Z,10.00
2022-12-25T16:26:14.909Z,9.52
2022-12-25T16:28:41.851Z,10.02
2022-12-25T16:31:08.824Z,10.57
2022-12-25T16:33:36.420Z,9.85
2022-12-25T16:36:03.317Z,9.98
2022-12-25T16:38:40.788Z,10.85
2022-12-25T16:41:09.515Z,9.45
2022-12-25T16:43:37.150Z,10.98
2022-12-25T16:46:15.276Z,10.15
2022-12-25T16:51:20.989Z,9.77
2022-12-25T16:53:48.169Z,9.95
2022-12-25T16:56:17.346Z,10.98
2022-12-25T16:58:46.668Z,10.13
2022-12-25T17:01:19.894Z,10.65
2022-12-25T17:03:47.367Z,10.45
2022-12-25T17:06:20.784Z,10.57
2022-12-25T17:08:47.793Z,10.90
2022-12-25T17:11:15.770Z,10.10
2022-12-25T17:13:48.204Z,10.52
2022-12-25T17:16:17.394Z,10.25
2022-12-25T17:18:44.631Z,9.60
2022-12-25T17:21:11.905Z,10.35
2022-12-25T17:23:38.645Z,10.27
2022-12-25T17:26:06.212Z,9.73
2022-12-25T17:28:34.688Z,11.07
2022-12-25T17:31:06.219Z,10.63
2022-12-25T17:33:36.051Z,10.65
2022-12-25T17:36:05.216Z,11.27
2022-12-25T17:38:33.114Z,11.07
2022-12-25T17:41:01.599Z,10.73
2022-12-25T17:43:28.916Z,10.55
2022-12-25T17:45:55.624Z,10.48
2022-12-25T17:48:22.466Z,10.43
2022-12-25T17:50:49.475Z,9.77
2022-12-25T17:53:16.454Z,10.82
2022-12-25T17:55:43.873Z,9.98
2022-12-25T17:58:10.806Z,9.93
2022-12-25T18:00:37.511Z,10.25
2022-12-25T18:03:11.200Z,10.52
2022-12-25T18:05:38.707Z,9.90
2022-12-25T18:08:05.528Z,10.48
2022-12-25T18:10:40.347Z,10.80
2022-12-25T18:13:07.555Z,10.52
2022-12-25T18:15:39.511Z,10.27
2022-12-25T18:18:07.946Z,10.35
2022-12-25T18:20:39.862Z,9.95
2022-12-25T18:23:10.032Z,9.95
2022-12-25T18:25:41.550Z,10.18
2022-12-25T18:28:09.700Z,10.60
2022-12-25T18:30:43.915Z,9.77
2022-12-25T18:33:11.342Z,10.82
2022-12-25T18:35:40.184Z,10.27
2022-12-25T18:38:09.195Z,10.65
2022-12-25T18:40:43.258Z,10.25
2022-12-25T18:43:10.974Z,11.27
2022-12-25T18:45:38.357Z,10.93
2022-12-25T18:48:06.174Z,10.88
2022-12-25T18:50:34.296Z,10.73
2022-12-25T18:53:01.693Z,11.02
2022-12-25T18:55:28.951Z,10.45
2022-12-25T18:57:56.455Z,9.85
2022-12-25T19:00:23.505Z,10.35
2022-12-25T19:02:51.072Z,9.75
2022-12-25T19:05:18.160Z,10.13
2022-12-25T19:07:45.095Z,11.15
2022-12-25T19:10:11.981Z,9.75
2022-12-25T19:12:38.865Z,9.95
2022-12-25T19:15:06.217Z,9.95
2022-12-25T19:17:36.163Z,11.00
2022-12-25T19:20:03.418Z,9.48
2022-12-25T19:22:30.468Z,9.70
2022-12-25T19:24:57.490Z,9.38
2022-12-25T19:27:24.464Z,9.70
2022-12-25T19:29:54.609Z,9.13
2022-12-25T19:32:22.072Z,10.05
2022-12-25T19:34:48.849Z,9.55
2022-12-25T19:37:16.021Z,9.52
2022-12-25T19:39:46.682Z,9.75
2022-12-25T19:42:16.361Z,9.77
2022-12-25T19:44:43.554Z,9.38
2022-12-25T19:47:11.378Z,9.25
2022-12-25T19:49:40.584Z,9.48
2022-12-25T19:52:08.027Z,8.30
2022-12-25T19:54:34.931Z,8.88
2022-12-25T19:57:01.778Z,8.70
2022-12-25T19:59:28.592Z,8.88
2022-12-25T20:01:55.582Z,8.13
2022-12-25T20:04:22.819Z,8.98
2022-12-25T20:06:49.640Z,9.48
2022-12-25T20:09:21.194Z,8.95
2022-12-25T20:11:48.575Z,8.55
2022-12-25T20:14:16.587Z,8.80
2022-12-25T20:16:46.754Z,7.63
2022-12-25T20:19:14.473Z,7.65
2022-12-25T20:21:41.700Z,7.82
2022-12-25T20:24:10.872Z,7.40
2022-12-25T20:26:38.793Z,7.65
2022-12-25T20:29:05.864Z,7.38
2022-12-25T20:31:35.548Z,6.93
2022-12-25T20:34:08.400Z,6.55
2022-12-25T20:36:37.743Z,7.38
2022-12-25T20:39:10.179Z,7.45
2022-12-25T20:41:37.866Z,7.35
2022-12-25T20:44:06.769Z,7.35
2022-12-25T20:46:33.676Z,7.15
2022-12-25T20:49:01.783Z,7.03
2022-12-25T20:51:28.683Z,7.07
2022-12-25T20:53:55.803Z,7.32
2022-12-25T20:56:25.211Z,7.10
2022-12-25T20:58:57.062Z,7.05
2022-12-25T21:01:24.490Z,6.53
2022-12-25T21:03:51.811Z,6.93
2022-12-25T21:06:18.909Z,7.18
2022-12-25T21:08:45.711Z,6.25
2022-12-25T21:11:14.159Z,6.43
2022-12-25T21:13:42.757Z,6.70
2022-12-25T21:16:12.793Z,6.28
2022-12-25T21:18:40.196Z,6.85
2022-12-25T21:21:07.902Z,6.35
2022-12-25T21:23:36.550Z,6.85
2022-12-25T21:26:28.190Z,6.65
2022-12-25T21:28:57.874Z,6.60
2022-12-25T21:31:25.189Z,6.57
2022-12-25T21:33:53.971Z,6.20
2022-12-25T21:36:30.002Z,6.28
2022-12-25T21:39:05.956Z,6.15
2022-12-25T21:41:34.277Z,6.10
2022-12-25T21:44:01.685Z,5.63
2022-12-25T21:46:29.121Z,5.72
2022-12-25T21:48:56.635Z,6.10
2022-12-25T21:51:45.733Z,4.68
2022-12-25T21:54:14.040Z,4.93
2022-12-25T21:56:45.137Z,5.13
2022-12-25T21:59:17.963Z,5.60
2022-12-25T22:01:45.605Z,4.90
2022-12-25T22:04:14.027Z,5.00
2022-12-25T22:07:00.324Z,4.28
2022-12-25T22:09:27.035Z,4.78
2022-12-25T22:12:12.517Z,3.95
2022-12-25T22:14:54.982Z,4.30
2022-12-25T22:17:46.884Z,4.40
2022-12-25T22:20:17.059Z,4.25
2022-12-25T22:22:44.278Z,4.50
2022-12-25T22:25:12.230Z,4.45
2022-12-25T22:27:40.778Z,4.55
2022-12-25T22:30:11.023Z,4.32
2022-12-25T22:32:37.881Z,4.68
2022-12-25T22:35:05.133Z,4.13
2022-12-25T22:37:31.940Z,4.80
2022-12-25T22:40:00.682Z,3.85
2022-12-25T22:42:27.641Z,4.15
2022-12-25T22:44:54.409Z,3.85
2022-12-25T22:47:21.201Z,4.40
2022-12-25T22:49:48.539Z,4.13
2022-12-25T22:52:15.421Z,4.20
2022-12-25T22:54:42.156Z,3.97
2022-12-25T22:57:08.895Z,3.63
2022-12-25T22:59:35.629Z,4.68
2022-12-25T23:02:02.520Z,4.35
2022-12-25T23:04:29.560Z,4.00
2022-12-25T23:06:56.804Z,4.57
2022-12-25T23:09:28.008Z,4.45
2022-12-25T23:11:56.493Z,4.82
2022-12-25T23:14:40.712Z,4.65
2022-12-25T23:17:31.812Z,4.53
2022-12-25T23:20:19.073Z,4.57
2022-12-25T23:23:05.052Z,3.90
2022-12-25T23:25:53.029Z,3.83
2022-12-25T23:28:40.669Z,4.38
2022-12-25T23:31:07.832Z,4.40
2022-12-25T23:33:34.950Z,4.65
2022-12-25T23:36:01.704Z,4.35
2022-12-25T23:38:28.469Z,4.95
2022-12-25T23:40:55.322Z,4.53
2022-12-25T23:43:22.252Z,4.47
2022-12-25T23:45:49.020Z,4.45
2022-12-25T23:48:15.826Z,4.43
2022-12-25T23:50:42.586Z,4.60
2022-12-25T23:53:10.963Z,4.18
2022-12-25T23:55:37.942Z,4.47
2022-12-25T23:58:05.151Z,4.22
